createdAt,value
2022-10-06T00:02:25.634Z,7.20
2022-10-06T00:04:52.165Z,7.20
2022-10-06T00:07:18.657Z,7.20
2022-10-06T00:09:45.175Z,7.10
2022-10-06T00:12:11.822Z,7.10
2022-10-06T00:14:38.339Z,7.10
2022-10-06T00:17:04.810Z,7.10
2022-10-06T00:19:31.311Z,7.10
2022-10-06T00:21:57.889Z,7.10
2022-10-06T00:24:24.455Z,7.10
2022-10-06T00:26:50.954Z,7.00
2022-10-06T00:29:17.429Z,7.00
2022-10-06T00:31:43.979Z,7.00
2022-10-06T00:34:10.528Z,6.90
2022-10-06T00:36:37.028Z,6.90
2022-10-06T00:39:03.520Z,6.90
2022-10-06T00:41:30.038Z,6.90
2022-10-06T00:43:56.558Z,6.90
2022-10-06T00:46:23.058Z,6.90
2022-10-06T00:48:49.671Z,6.80
2022-10-06T00:51:16.192Z,6.80
2022-10-06T00:53:42.698Z,6.80
2022-10-06T00:56:09.200Z,6.80
2022-10-06T00:58:35.684Z,6.80
2022-10-06T01:01:02.293Z,6.70
2022-10-06T01:03:28.807Z,6.70
2022-10-06T01:05:55.324Z,6.70
2022-10-06T01:08:21.844Z,6.70
2022-10-06T01:10:48.365Z,6.60
2022-10-06T01:13:14.853Z,6.70
2022-10-06T01:15:41.396Z,6.60
2022-10-06T01:18:08.010Z,6.60
2022-10-06T01:20:34.486Z,6.50
2022-10-06T01:23:00.998Z,6.50
2022-10-06T01:25:27.505Z,6.60
2022-10-06T01:27:53.979Z,6.60
2022-10-06T01:30:20.511Z,6.50
2022-10-06T01:32:47.044Z,6.50
2022-10-06T01:35:13.569Z,6.60
2022-10-06T01:37:40.097Z,6.50
2022-10-06T01:40:06.596Z,6.50
2022-10-06T01:42:33.084Z,6.50
2022-10-06T01:44:59.631Z,6.50
2022-10-06T01:47:26.106Z,6.40
2022-10-06T01:49:52.650Z,6.40
2022-10-06T01:52:19.120Z,6.40
2022-10-06T01:54:45.634Z,6.40
2022-10-06T01:57:12.321Z,6.40
2022-10-06T01:59:38.835Z,6.30
2022-10-06T02:02:05.395Z,6.40
2022-10-06T02:04:31.980Z,6.30
2022-10-06T02:06:58.497Z,6.30
2022-10-06T02:09:25.022Z,6.30
2022-10-06T02:11:51.567Z,6.30
2022-10-06T02:14:18.035Z,6.30
2022-10-06T02:16:47.627Z,6.30
2022-10-06T02:19:14.110Z,6.30
2022-10-06T02:21:40.618Z,6.30
2022-10-06T02:24:07.123Z,6.30
2022-10-06T02:26:33.646Z,6.30
2022-10-06T02:29:00.145Z,6.20
2022-10-06T02:31:26.749Z,6.20
2022-10-06T02:33:53.318Z,6.20
2022-10-06T02:36:19.833Z,6.20
2022-10-06T02:38:46.421Z,6.10
2022-10-06T02:41:12.959Z,6.10
2022-10-06T02:43:39.453Z,6.10
2022-10-06T02:46:06.055Z,6.10
2022-10-06T02:48:32.890Z,6.10
2022-10-06T02:50:59.476Z,6.00
2022-10-06T02:53:26.045Z,6.00
2022-10-06T02:55:52.554Z,6.00
2022-10-06T02:58:19.125Z,6.00
2022-10-06T03:00:45.677Z,6.00
2022-10-06T03:03:12.223Z,6.00
2022-10-06T03:05:38.742Z,6.00
2022-10-06T03:08:05.326Z,5.90
2022-10-06T03:10:31.847Z,5.90
2022-10-06T03:12:58.425Z,5.90
2022-10-06T03:15:24.989Z,5.80
2022-10-06T03:17:51.474Z,5.80
2022-10-06T03:20:17.961Z,5.80
2022-10-06T03:22:44.462Z,5.80
2022-10-06T03:25:10.946Z,5.80
2022-10-06T03:27:37.465Z,5.80
2022-10-06T03:30:04.004Z,5.80
2022-10-06T03:32:30.478Z,5.80
2022-10-06T03:34:57.053Z,5.80
2022-10-06T03:37:23.705Z,5.80
2022-10-06T03:39:50.306Z,5.80
2022-10-06T03:42:16.767Z,5.80
2022-10-06T03:44:43.297Z,5.80
2022-10-06T03:47:14.571Z,5.80
2022-10-06T03:49:43.397Z,5.80
2022-10-06T03:52:09.883Z,5.70
2022-10-06T03:54:36.367Z,5.70
2022-10-06T03:57:02.894Z,5.70
2022-10-06T03:59:29.398Z,5.60
2022-10-06T04:01:55.961Z,5.60
2022-10-06T04:04:22.501Z,5.60
2022-10-06T04:06:49.004Z,5.60
2022-10-06T04:09:16.124Z,5.60
2022-10-06T04:11:42.708Z,5.50
2022-10-06T04:14:09.240Z,5.50
2022-10-06T04:16:35.838Z,5.50
2022-10-06T04:19:02.769Z,5.50
2022-10-06T04:21:29.311Z,5.50
2022-10-06T04:23:55.826Z,5.50
2022-10-06T04:26:22.538Z,5.50
2022-10-06T04:28:49.137Z,5.50
2022-10-06T04:31:15.761Z,5.50
2022-10-06T04:33:42.289Z,5.50
2022-10-06T04:36:08.778Z,5.40
2022-10-06T04:38:35.383Z,5.40
2022-10-06T04:41:01.869Z,5.40
2022-10-06T04:43:28.641Z,5.40
2022-10-06T04:45:55.374Z,5.40
2022-10-06T04:48:21.918Z,5.40
2022-10-06T04:50:48.488Z,5.40
2022-10-06T04:53:14.976Z,5.40
2022-10-06T04:55:41.537Z,5.40
2022-10-06T04:58:08.044Z,5.40
2022-10-06T05:00:34.589Z,5.40
2022-10-06T05:03:01.125Z,5.30
2022-10-06T05:05:27.674Z,5.30
2022-10-06T05:07:54.200Z,5.30
2022-10-06T05:10:20.751Z,5.20
2022-10-06T05:12:47.249Z,5.20
2022-10-06T05:15:13.795Z,5.20
2022-10-06T05:17:40.274Z,5.20
2022-10-06T05:20:06.801Z,5.20
2022-10-06T05:22:33.504Z,5.20
2022-10-06T05:25:00.007Z,5.20
2022-10-06T05:27:26.566Z,5.20
2022-10-06T05:29:53.144Z,5.20
2022-10-06T05:32:19.653Z,5.30
2022-10-06T05:34:46.165Z,5.30
2022-10-06T05:37:12.785Z,5.30
2022-10-06T05:39:39.328Z,5.30
2022-10-06T05:42:05.838Z,5.30
2022-10-06T05:44:32.578Z,5.30
2022-10-06T05:46:59.092Z,5.30
2022-10-06T05:49:25.941Z,5.40
2022-10-06T05:51:52.519Z,5.40
2022-10-06T05:54:19.037Z,5.30
2022-10-06T05:56:45.593Z,5.40
2022-10-06T05:59:12.099Z,5.40
2022-10-06T06:01:38.655Z,5.40
2022-10-06T06:04:05.195Z,5.40
2022-10-06T06:06:31.756Z,5.40
2022-10-06T06:08:58.307Z,5.40
2022-10-06T06:11:24.811Z,5.40
2022-10-06T06:13:51.362Z,5.40
2022-10-06T06:16:17.896Z,5.50
2022-10-06T06:18:44.428Z,5.50
2022-10-06T06:21:10.954Z,5.50
2022-10-06T06:23:37.490Z,5.50
2022-10-06T06:26:04.066Z,5.60
2022-10-06T06:28:30.936Z,5.60
2022-10-06T06:30:57.733Z,5.70
2022-10-06T06:33:24.404Z,5.70
2022-10-06T06:35:50.928Z,5.70
2022-10-06T06:38:17.524Z,5.80
2022-10-06T06:40:44.041Z,5.90
2022-10-06T06:43:10.566Z,5.90
2022-10-06T06:45:37.110Z,6.00
2022-10-06T06:48:03.703Z,6.10
2022-10-06T06:50:30.225Z,6.10
2022-10-06T06:52:56.756Z,6.20
2022-10-06T06:55:23.406Z,6.30
2022-10-06T06:57:49.867Z,6.40
2022-10-06T07:00:16.391Z,6.50
2022-10-06T07:02:42.942Z,6.60
2022-10-06T07:05:09.484Z,6.70
2022-10-06T07:07:36.047Z,6.80
2022-10-06T07:10:02.547Z,6.90
2022-10-06T07:12:29.086Z,7.00
2022-10-06T07:14:55.658Z,7.10
2022-10-06T07:17:22.301Z,7.30
2022-10-06T07:19:48.820Z,7.40
2022-10-06T07:22:15.417Z,7.50
2022-10-06T07:24:41.930Z,7.60
2022-10-06T07:27:11.569Z,7.80
2022-10-06T07:29:38.107Z,7.90
2022-10-06T07:32:04.627Z,8.00
2022-10-06T07:34:31.228Z,8.20
2022-10-06T07:36:59.665Z,8.40
2022-10-06T07:39:28.120Z,8.60
2022-10-06T07:41:54.645Z,8.80
2022-10-06T07:44:21.222Z,9.00
2022-10-06T07:46:47.743Z,9.20
2022-10-06T07:49:14.322Z,9.30
2022-10-06T07:51:40.855Z,9.60
2022-10-06T07:54:07.374Z,9.80
2022-10-06T07:56:33.887Z,10.10
2022-10-06T07:59:00.581Z,10.30
2022-10-06T08:01:27.123Z,10.50
2022-10-06T08:03:53.754Z,10.80
2022-10-06T08:06:20.342Z,11.00
2022-10-06T08:08:51.710Z,11.40
2022-10-06T08:11:19.262Z,11.60
2022-10-06T08:13:45.798Z,12.00
2022-10-06T08:16:12.348Z,12.20
2022-10-06T08:18:46.532Z,12.40
2022-10-06T08:21:13.675Z,12.60
2022-10-06T08:23:40.155Z,12.70
2022-10-06T08:26:06.694Z,12.90
2022-10-06T08:28:33.329Z,13.10
2022-10-06T08:30:59.917Z,13.40
2022-10-06T08:33:26.421Z,13.60
2022-10-06T08:35:52.961Z,13.80
2022-10-06T08:38:19.441Z,14.00
2022-10-06T08:40:45.912Z,14.10
2022-10-06T08:43:12.422Z,14.30
2022-10-06T08:45:39.107Z,14.40
2022-10-06T08:48:05.602Z,14.50
2022-10-06T08:50:32.124Z,14.60
2022-10-06T08:52:58.632Z,14.70
2022-10-06T08:55:25.118Z,14.80
2022-10-06T08:57:51.726Z,14.80
2022-10-06T09:00:21.286Z,14.90
2022-10-06T09:02:48.731Z,15.00
2022-10-06T09:05:15.309Z,15.10
2022-10-06T09:07:42.081Z,15.20
2022-10-06T09:10:08.641Z,15.30
2022-10-06T09:12:35.118Z,15.40
2022-10-06T09:15:01.785Z,15.50
2022-10-06T09:17:28.259Z,15.60
2022-10-06T09:19:54.979Z,15.70
2022-10-06T09:22:21.630Z,15.80
2022-10-06T09:24:48.158Z,15.90
2022-10-06T09:27:14.649Z,15.90
2022-10-06T09:29:41.168Z,15.90
2022-10-06T09:32:07.654Z,16.00
2022-10-06T09:34:34.143Z,16.10
2022-10-06T09:37:02.065Z,16.10
2022-10-06T09:39:28.861Z,16.10
2022-10-06T09:41:55.388Z,16.20
2022-10-06T09:44:21.889Z,16.30
2022-10-06T09:46:48.370Z,16.40
2022-10-06T09:49:14.853Z,16.50
2022-10-06T09:51:41.374Z,16.60
2022-10-06T09:54:07.846Z,16.70
2022-10-06T09:56:34.324Z,16.70
2022-10-06T09:59:00.822Z,16.80
2022-10-06T10:01:27.424Z,16.80
2022-10-06T10:04:18.666Z,17.00
2022-10-06T10:06:40.501Z,16.90
2022-10-06T10:09:07.064Z,17.00
2022-10-06T10:11:33.553Z,17.00
2022-10-06T10:14:00.101Z,17.10
2022-10-06T10:16:26.869Z,17.10
2022-10-06T10:18:53.442Z,17.20
2022-10-06T10:21:19.935Z,17.30
2022-10-06T10:23:46.426Z,17.40
2022-10-06T10:26:12.922Z,17.40
2022-10-06T10:28:39.516Z,17.50
2022-10-06T10:31:06.084Z,17.60
2022-10-06T10:33:32.650Z,17.60
2022-10-06T10:35:59.149Z,17.70
2022-10-06T10:38:25.665Z,17.80
2022-10-06T10:40:52.142Z,17.90
2022-10-06T10:43:18.655Z,17.90
2022-10-06T10:45:45.150Z,17.90
2022-10-06T10:48:11.627Z,18.00
2022-10-06T10:50:38.166Z,18.10
2022-10-06T10:53:04.727Z,18.10
2022-10-06T10:55:31.218Z,18.10
2022-10-06T10:57:57.707Z,18.20
2022-10-06T11:00:24.190Z,18.20
2022-10-06T11:02:50.742Z,18.30
2022-10-06T11:05:17.217Z,18.40
2022-10-06T11:07:43.698Z,18.40
2022-10-06T11:10:10.214Z,18.50
2022-10-06T11:12:36.674Z,18.50
2022-10-06T11:15:03.140Z,18.60
2022-10-06T11:17:29.908Z,18.70
2022-10-06T11:19:56.456Z,18.70
2022-10-06T11:22:23.016Z,18.80
2022-10-06T11:24:49.583Z,18.80
2022-10-06T11:27:16.081Z,18.80
2022-10-06T11:29:42.662Z,18.90
2022-10-06T11:32:09.144Z,18.90
2022-10-06T11:34:35.695Z,18.90
2022-10-06T11:37:02.173Z,19.00
2022-10-06T11:39:31.654Z,19.00
2022-10-06T11:41:58.138Z,19.10
2022-10-06T11:44:24.659Z,19.10
2022-10-06T11:46:51.135Z,19.20
2022-10-06T11:49:17.746Z,19.30
2022-10-06T11:51:44.222Z,19.30
2022-10-06T11:54:10.686Z,19.40
2022-10-06T11:56:37.188Z,19.30
2022-10-06T11:59:03.689Z,19.30
2022-10-06T12:01:30.166Z,19.30
2022-10-06T12:03:56.676Z,19.40
2022-10-06T12:06:23.163Z,19.50
2022-10-06T12:08:49.638Z,19.50
2022-10-06T12:11:16.154Z,19.60
2022-10-06T12:19:15.637Z,19.80
2022-10-06T12:21:42.179Z,19.90
2022-10-06T12:24:08.791Z,20.00
2022-10-06T12:26:35.333Z,20.10
2022-10-06T12:29:01.816Z,20.10
2022-10-06T12:31:28.475Z,20.20
2022-10-06T12:33:55.044Z,20.30
2022-10-06T12:36:21.593Z,20.20
2022-10-06T12:38:48.109Z,20.30
2022-10-06T12:41:14.626Z,20.30
2022-10-06T12:43:41.167Z,20.20
2022-10-06T12:46:07.818Z,20.20
2022-10-06T12:48:34.526Z,20.20
2022-10-06T12:51:00.992Z,20.20
2022-10-06T12:53:27.521Z,20.10
2022-10-06T12:55:53.990Z,20.00
2022-10-06T12:58:20.485Z,19.90
2022-10-06T13:00:47.033Z,19.80
2022-10-06T13:03:13.585Z,19.80
2022-10-06T13:05:40.132Z,19.90
2022-10-06T13:08:06.670Z,19.90
2022-10-06T13:10:33.306Z,20.00
2022-10-06T13:12:59.869Z,20.00
2022-10-06T13:15:26.415Z,20.00
2022-10-06T13:17:53.018Z,20.00
2022-10-06T13:20:19.639Z,20.00
2022-10-06T13:22:46.149Z,20.00
2022-10-06T13:25:12.702Z,20.00
2022-10-06T13:27:39.278Z,20.10
2022-10-06T13:30:05.842Z,20.00
2022-10-06T13:32:32.322Z,19.90
2022-10-06T13:34:59.041Z,19.80
2022-10-06T13:37:25.813Z,19.80
2022-10-06T13:39:52.295Z,19.70
2022-10-06T13:42:18.947Z,19.60
2022-10-06T13:44:45.476Z,19.60
2022-10-06T13:47:12.034Z,19.60
2022-10-06T13:49:38.602Z,19.60
2022-10-06T13:52:07.783Z,19.70
2022-10-06T13:54:36.615Z,19.70
2022-10-06T13:57:03.165Z,19.80
2022-10-06T13:59:29.710Z,19.90
2022-10-06T14:01:56.326Z,19.90
2022-10-06T14:04:22.998Z,19.90
2022-10-06T14:06:49.535Z,20.00
2022-10-06T14:09:16.083Z,20.00
2022-10-06T14:11:44.803Z,20.00
2022-10-06T14:14:15.896Z,20.00
2022-10-06T14:16:42.412Z,19.90
2022-10-06T14:19:08.977Z,20.00
2022-10-06T14:21:35.510Z,20.00
2022-10-06T14:24:06.052Z,19.90
2022-10-06T14:26:36.526Z,19.90
2022-10-06T14:29:03.041Z,19.90
2022-10-06T14:31:29.728Z,20.00
2022-10-06T14:33:56.354Z,20.00
2022-10-06T14:36:22.940Z,19.80
2022-10-06T14:38:49.454Z,19.70
2022-10-06T14:41:19.024Z,19.60
2022-10-06T14:43:45.696Z,19.50
2022-10-06T14:46:12.345Z,19.40
2022-10-06T14:48:38.879Z,19.40
2022-10-06T14:51:05.364Z,19.30
2022-10-06T14:53:32.089Z,19.20
2022-10-06T14:55:58.602Z,19.20
2022-10-06T14:58:25.103Z,19.10
2022-10-06T15:00:51.693Z,19.00
2022-10-06T15:03:18.289Z,19.00
2022-10-06T15:05:44.861Z,19.00
2022-10-06T15:08:11.422Z,18.90
2022-10-06T15:10:38.138Z,18.90
2022-10-06T15:13:04.666Z,18.80
2022-10-06T15:15:31.161Z,18.70
2022-10-06T15:17:57.700Z,18.80
2022-10-06T15:20:24.234Z,18.70
2022-10-06T15:22:50.713Z,18.70
2022-10-06T15:25:17.282Z,18.60
2022-10-06T15:27:43.762Z,18.60
2022-10-06T15:30:10.354Z,18.60
2022-10-06T15:32:36.901Z,18.50
2022-10-06T15:35:03.428Z,18.50
2022-10-06T15:37:29.946Z,18.50
2022-10-06T15:39:56.511Z,18.40
2022-10-06T15:42:23.133Z,18.30
2022-10-06T15:44:49.695Z,18.30
2022-10-06T15:47:16.196Z,18.20
2022-10-06T15:49:42.710Z,18.20
2022-10-06T15:52:09.295Z,18.10
2022-10-06T15:54:35.815Z,18.00
2022-10-06T15:57:02.342Z,18.00
2022-10-06T15:59:28.911Z,17.90
2022-10-06T16:01:55.510Z,17.80
2022-10-06T16:04:22.201Z,17.80
2022-10-06T16:06:48.801Z,17.70
2022-10-06T16:09:15.316Z,17.70
2022-10-06T16:11:41.851Z,17.70
2022-10-06T16:14:08.516Z,17.60
2022-10-06T16:16:36.925Z,17.50
2022-10-06T16:19:05.377Z,17.50
2022-10-06T16:21:31.917Z,17.40
2022-10-06T16:23:58.538Z,17.30
2022-10-06T16:26:25.121Z,17.20
2022-10-06T16:28:51.626Z,17.10
2022-10-06T16:31:18.200Z,17.00
2022-10-06T16:33:44.782Z,16.90
2022-10-06T16:36:11.312Z,16.70
2022-10-06T16:38:37.874Z,16.60
2022-10-06T16:41:04.441Z,16.50
2022-10-06T16:43:31.086Z,16.40
2022-10-06T16:46:01.927Z,16.30
2022-10-06T16:48:28.956Z,16.20
2022-10-06T16:50:55.529Z,16.10
2022-10-06T16:53:22.092Z,15.90
2022-10-06T16:55:48.610Z,15.80
2022-10-06T16:58:15.197Z,15.70
2022-10-06T17:00:41.854Z,15.60
2022-10-06T17:03:08.457Z,15.50
2022-10-06T17:05:35.022Z,15.40
2022-10-06T17:08:01.493Z,15.30
2022-10-06T17:10:28.007Z,15.20
2022-10-06T17:12:54.596Z,15.10
2022-10-06T17:15:21.141Z,15.00
2022-10-06T17:17:47.666Z,14.90
2022-10-06T17:20:14.201Z,14.80
2022-10-06T17:22:40.954Z,14.70
2022-10-06T17:25:07.816Z,14.70
2022-10-06T17:27:38.354Z,14.60
2022-10-06T17:30:07.731Z,14.50
2022-10-06T17:32:34.282Z,14.50
2022-10-06T17:35:00.801Z,14.40
2022-10-06T17:37:27.338Z,14.30
2022-10-06T17:39:53.926Z,14.20
2022-10-06T17:42:20.458Z,14.10
2022-10-06T17:44:46.947Z,14.00
2022-10-06T17:47:13.510Z,13.90
2022-10-06T17:49:40.043Z,13.90
2022-10-06T17:52:06.563Z,13.80
2022-10-06T17:54:33.148Z,13.70
2022-10-06T17:56:59.714Z,13.60
2022-10-06T17:59:26.214Z,13.50
2022-10-06T18:01:52.782Z,13.50
2022-10-06T18:04:19.285Z,13.40
2022-10-06T18:06:45.813Z,13.40
2022-10-06T18:09:12.396Z,13.30
2022-10-06T18:11:38.921Z,13.30
2022-10-06T18:14:05.439Z,13.30
2022-10-06T18:16:32.097Z,13.20
2022-10-06T18:18:58.670Z,13.10
2022-10-06T18:21:25.181Z,13.10
2022-10-06T18:23:51.760Z,13.00
2022-10-06T18:26:18.344Z,12.90
2022-10-06T18:28:44.870Z,12.80
2022-10-06T18:31:11.526Z,12.60
2022-10-06T18:36:11.024Z,12.60
2022-10-06T18:36:24.688Z,12.50
2022-10-06T18:38:51.253Z,12.40
2022-10-06T18:41:17.800Z,12.40
2022-10-06T18:43:44.406Z,12.30
2022-10-06T18:46:10.957Z,12.30
2022-10-06T18:48:37.465Z,12.30
2022-10-06T18:51:04.181Z,12.30
2022-10-06T18:53:30.837Z,12.30
2022-10-06T18:55:57.327Z,12.30
2022-10-06T18:58:23.908Z,12.30
2022-10-06T19:00:50.514Z,12.20
2022-10-06T19:03:17.064Z,12.20
2022-10-06T19:05:43.609Z,12.10
2022-10-06T19:08:10.155Z,12.10
2022-10-06T19:10:36.682Z,12.10
2022-10-06T19:13:03.174Z,12.10
2022-10-06T19:15:29.672Z,12.00
2022-10-06T19:17:56.221Z,12.00
2022-10-06T19:20:22.750Z,12.00
2022-10-06T19:22:49.348Z,11.90
2022-10-06T19:25:15.858Z,11.90
2022-10-06T19:27:42.687Z,11.90
2022-10-06T19:30:09.441Z,11.80
2022-10-06T19:32:36.043Z,11.80
2022-10-06T19:35:06.365Z,11.80
2022-10-06T19:37:35.876Z,11.80
2022-10-06T19:40:02.482Z,11.70
2022-10-06T19:42:29.035Z,11.70
2022-10-06T19:44:55.897Z,11.70
2022-10-06T19:47:22.487Z,11.60
2022-10-06T19:49:49.137Z,11.60
2022-10-06T19:52:15.659Z,11.60
2022-10-06T19:54:42.212Z,11.50
2022-10-06T19:57:08.765Z,11.50
2022-10-06T19:59:35.301Z,11.40
2022-10-06T20:02:01.929Z,11.40
2022-10-06T20:04:28.608Z,11.30
2022-10-06T20:06:55.292Z,11.30
2022-10-06T20:09:21.864Z,11.30
2022-10-06T20:11:48.349Z,11.30
2022-10-06T20:14:19.752Z,11.20
2022-10-06T20:16:47.265Z,11.20
2022-10-06T20:19:13.774Z,11.20
2022-10-06T20:21:40.287Z,11.10
2022-10-06T20:24:06.957Z,11.10
2022-10-06T20:26:33.448Z,11.10
2022-10-06T20:29:00.020Z,11.10
2022-10-06T20:31:26.552Z,11.00
2022-10-06T20:33:54.506Z,11.00
2022-10-06T20:36:21.020Z,10.90
2022-10-06T20:38:47.573Z,10.90
2022-10-06T20:41:14.090Z,10.90
2022-10-06T20:43:40.574Z,10.90
2022-10-06T20:46:07.113Z,10.90
2022-10-06T20:48:35.937Z,10.80
2022-10-06T20:51:02.506Z,10.80
2022-10-06T20:53:29.017Z,10.90
2022-10-06T20:55:55.488Z,10.80
2022-10-06T20:58:22.011Z,10.70
2022-10-06T21:00:48.537Z,10.70
2022-10-06T21:03:15.056Z,10.60
2022-10-06T21:05:41.555Z,10.60
2022-10-06T21:08:08.032Z,10.50
2022-10-06T21:10:34.569Z,10.50
2022-10-06T21:13:01.096Z,10.40
2022-10-06T21:15:27.673Z,10.40
2022-10-06T21:17:54.249Z,10.30
2022-10-06T21:20:20.743Z,10.40
2022-10-06T21:22:47.256Z,10.40
2022-10-06T21:25:13.747Z,10.40
2022-10-06T21:27:40.244Z,10.30
2022-10-06T21:30:06.768Z,10.30
2022-10-06T21:32:33.270Z,10.30
2022-10-06T21:34:59.845Z,10.30
2022-10-06T21:37:26.323Z,10.20
2022-10-06T21:39:52.791Z,10.20
2022-10-06T21:42:19.306Z,10.20
2022-10-06T21:44:45.767Z,10.20
2022-10-06T21:47:12.377Z,10.10
2022-10-06T21:49:38.909Z,10.10
2022-10-06T21:52:05.494Z,10.10
2022-10-06T21:54:32.084Z,10.00
2022-10-06T21:56:58.587Z,10.00
2022-10-06T21:59:25.098Z,10.00
2022-10-06T22:01:51.644Z,10.00
2022-10-06T22:04:18.248Z,9.90
2022-10-06T22:06:44.707Z,9.90
2022-10-06T22:09:11.215Z,9.90
2022-10-06T22:11:37.743Z,9.80
2022-10-06T22:14:04.212Z,9.80
2022-10-06T22:16:30.933Z,9.80
2022-10-06T22:18:57.476Z,9.80
2022-10-06T22:21:23.987Z,9.70
2022-10-06T22:23:50.516Z,9.70
2022-10-06T22:26:17.018Z,9.70
2022-10-06T22:28:43.547Z,9.60
2022-10-06T22:31:10.178Z,9.60
2022-10-06T22:33:36.696Z,9.60
2022-10-06T22:36:03.223Z,9.60
2022-10-06T22:38:29.754Z,9.50
2022-10-06T22:40:56.402Z,9.50
2022-10-06T22:43:22.892Z,9.50
2022-10-06T22:45:49.396Z,9.50
2022-10-06T22:48:15.905Z,9.50
2022-10-06T22:50:42.394Z,9.40
2022-10-06T22:53:08.864Z,9.40
2022-10-06T22:55:35.404Z,9.40
2022-10-06T22:58:01.953Z,9.40
2022-10-06T23:00:28.526Z,9.40
2022-10-06T23:02:55.102Z,9.30
2022-10-06T23:05:21.707Z,9.30
2022-10-06T23:07:48.198Z,9.20
2022-10-06T23:10:14.727Z,9.20
2022-10-06T23:12:41.339Z,9.20
2022-10-06T23:15:07.850Z,9.20
2022-10-06T23:17:34.357Z,9.20
2022-10-06T23:20:00.899Z,9.20
2022-10-06T23:22:27.366Z,9.20
2022-10-06T23:24:53.911Z,9.20
2022-10-06T23:27:20.379Z,9.10
2022-10-06T23:29:46.888Z,9.20
2022-10-06T23:32:13.436Z,9.20
2022-10-06T23:34:39.966Z,9.20
2022-10-06T23:37:06.501Z,9.10
2022-10-06T23:39:33.024Z,9.10
2022-10-06T23:41:59.533Z,9.10
2022-10-06T23:44:26.056Z,9.00
2022-10-06T23:46:52.567Z,9.00
2022-10-06T23:49:19.071Z,9.00
2022-10-06T23:51:45.708Z,9.00
2022-10-06T23:54:12.185Z,9.00
2022-10-06T23:56:38.702Z,9.00
2022-10-06T23:59:05.244Z,9.00
